sensor_id;sensor_type;location;lat;lon;timestamp;P1;durP1;ratioP1;P2;durP2;ratioP2
72325;SDS011;60278;47.980;18.780;2024-01-06T00:01:03;24.20;;;12.60;;
72325;SDS011;60278;47.980;18.780;2024-01-06T00:04:05;27.23;;;13.27;;
72325;SDS011;60278;47.980;18.780;2024-01-06T00:07:07;27.60;;;15.27;;
72325;SDS011;60278;47.980;18.780;2024-01-06T00:10:10;28.00;;;13.97;;
72325;SDS011;60278;47.980;18.780;2024-01-06T00:13:14;24.10;;;12.15;;
72325;SDS011;60278;47.980;18.780;2024-01-06T00:16:16;21.83;;;12.48;;
72325;SDS011;60278;47.980;18.780;2024-01-06T00:19:19;24.75;;;12.30;;
72325;SDS011;60278;47.980;18.780;2024-01-06T00:22:21;29.20;;;12.73;;
72325;SDS011;60278;47.980;18.780;2024-01-06T00:25:23;23.83;;;11.53;;
72325;SDS011;60278;47.980;18.780;2024-01-06T00:28:25;23.88;;;12.20;;
72325;SDS011;60278;47.980;18.780;2024-01-06T00:31:28;33.55;;;14.40;;
72325;SDS011;60278;47.980;18.780;2024-01-06T00:34:30;29.25;;;11.70;;
72325;SDS011;60278;47.980;18.780;2024-01-06T00:37:32;24.03;;;12.07;;
72325;SDS011;60278;47.980;18.780;2024-01-06T00:40:34;24.47;;;12.70;;
72325;SDS011;60278;47.980;18.780;2024-01-06T00:43:36;21.83;;;10.57;;
72325;SDS011;60278;47.980;18.780;2024-01-06T00:46:38;22.67;;;12.25;;
72325;SDS011;60278;47.980;18.780;2024-01-06T00:49:41;21.42;;;10.35;;
72325;SDS011;60278;47.980;18.780;2024-01-06T00:52:43;16.43;;;9.57;;
72325;SDS011;60278;47.980;18.780;2024-01-06T00:55:45;18.60;;;10.13;;
72325;SDS011;60278;47.980;18.780;2024-01-06T00:58:47;21.52;;;11.02;;
72325;SDS011;60278;47.980;18.780;2024-01-06T01:01:49;20.92;;;10.38;;
72325;SDS011;60278;47.980;18.780;2024-01-06T01:04:52;17.00;;;9.90;;
72325;SDS011;60278;47.980;18.780;2024-01-06T01:07:55;21.23;;;11.17;;
72325;SDS011;60278;47.980;18.780;2024-01-06T01:10:57;23.40;;;11.57;;
72325;SDS011;60278;47.980;18.780;2024-01-06T01:13:59;25.85;;;11.88;;
72325;SDS011;60278;47.980;18.780;2024-01-06T01:17:02;22.35;;;10.35;;
72325;SDS011;60278;47.980;18.780;2024-01-06T01:20:04;24.02;;;10.75;;
72325;SDS011;60278;47.980;18.780;2024-01-06T01:23:07;23.80;;;11.53;;
72325;SDS011;60278;47.980;18.780;2024-01-06T01:26:09;25.80;;;11.40;;
72325;SDS011;60278;47.980;18.780;2024-01-06T01:29:12;26.52;;;11.70;;
72325;SDS011;60278;47.980;18.780;2024-01-06T01:32:14;25.00;;;11.55;;
72325;SDS011;60278;47.980;18.780;2024-01-06T01:35:17;23.35;;;12.25;;
72325;SDS011;60278;47.980;18.780;2024-01-06T01:38:19;20.83;;;11.20;;
72325;SDS011;60278;47.980;18.780;2024-01-06T01:41:21;25.50;;;12.77;;
72325;SDS011;60278;47.980;18.780;2024-01-06T01:44:23;25.80;;;11.90;;
72325;SDS011;60278;47.980;18.780;2024-01-06T01:47:26;21.23;;;10.95;;
72325;SDS011;60278;47.980;18.780;2024-01-06T01:50:28;23.48;;;11.45;;
72325;SDS011;60278;47.980;18.780;2024-01-06T01:53:32;20.93;;;11.73;;
72325;SDS011;60278;47.980;18.780;2024-01-06T01:56:35;18.27;;;11.47;;
72325;SDS011;60278;47.980;18.780;2024-01-06T01:59:38;18.48;;;11.05;;
72325;SDS011;60278;47.980;18.780;2024-01-06T02:02:40;19.60;;;10.85;;
72325;SDS011;60278;47.980;18.780;2024-01-06T02:05:42;26.50;;;12.15;;
72325;SDS011;60278;47.980;18.780;2024-01-06T02:08:44;19.67;;;11.20;;
72325;SDS011;60278;47.980;18.780;2024-01-06T02:11:46;22.90;;;12.93;;
72325;SDS011;60278;47.980;18.780;2024-01-06T02:14:48;19.10;;;12.30;;
72325;SDS011;60278;47.980;18.780;2024-01-06T02:17:50;27.90;;;13.63;;
72325;SDS011;60278;47.980;18.780;2024-01-06T02:20:53;21.55;;;13.05;;
72325;SDS011;60278;47.980;18.780;2024-01-06T02:23:59;22.67;;;12.43;;
72325;SDS011;60278;47.980;18.780;2024-01-06T02:27:01;20.50;;;11.87;;
72325;SDS011;60278;47.980;18.780;2024-01-06T02:30:03;21.48;;;11.82;;
72325;SDS011;60278;47.980;18.780;2024-01-06T02:33:06;25.35;;;13.15;;
72325;SDS011;60278;47.980;18.780;2024-01-06T02:36:08;27.83;;;13.70;;
72325;SDS011;60278;47.980;18.780;2024-01-06T02:39:11;30.50;;;14.83;;
72325;SDS011;60278;47.980;18.780;2024-01-06T02:42:13;21.70;;;12.23;;
72325;SDS011;60278;47.980;18.780;2024-01-06T02:45:15;20.63;;;11.95;;
72325;SDS011;60278;47.980;18.780;2024-01-06T02:48:18;21.77;;;12.60;;
72325;SDS011;60278;47.980;18.780;2024-01-06T02:51:20;25.08;;;13.77;;
72325;SDS011;60278;47.980;18.780;2024-01-06T02:54:22;44.80;;;24.37;;
72325;SDS011;60278;47.980;18.780;2024-01-06T02:57:25;32.57;;;15.40;;
72325;SDS011;60278;47.980;18.780;2024-01-06T03:00:27;25.45;;;12.52;;
72325;SDS011;60278;47.980;18.780;2024-01-06T03:03:29;23.52;;;12.65;;
72325;SDS011;60278;47.980;18.780;2024-01-06T03:06:32;27.77;;;13.18;;
72325;SDS011;60278;47.980;18.780;2024-01-06T03:09:34;35.00;;;18.03;;
72325;SDS011;60278;47.980;18.780;2024-01-06T03:12:37;29.03;;;15.87;;
72325;SDS011;60278;47.980;18.780;2024-01-06T03:15:39;42.67;;;18.58;;
72325;SDS011;60278;47.980;18.780;2024-01-06T03:18:41;34.75;;;16.83;;
72325;SDS011;60278;47.980;18.780;2024-01-06T03:21:43;27.33;;;14.20;;
72325;SDS011;60278;47.980;18.780;2024-01-06T03:24:45;41.07;;;21.87;;
72325;SDS011;60278;47.980;18.780;2024-01-06T03:27:47;24.47;;;14.60;;
72325;SDS011;60278;47.980;18.780;2024-01-06T03:30:50;28.90;;;14.85;;
72325;SDS011;60278;47.980;18.780;2024-01-06T03:33:52;17.35;;;10.43;;
72325;SDS011;60278;47.980;18.780;2024-01-06T03:36:56;16.83;;;10.27;;
72325;SDS011;60278;47.980;18.780;2024-01-06T03:39:58;18.27;;;9.47;;
72325;SDS011;60278;47.980;18.780;2024-01-06T03:43:01;16.93;;;9.30;;
72325;SDS011;60278;47.980;18.780;2024-01-06T03:46:03;22.08;;;10.70;;
72325;SDS011;60278;47.980;18.780;2024-01-06T03:49:06;19.75;;;11.30;;
72325;SDS011;60278;47.980;18.780;2024-01-06T03:52:09;19.13;;;11.48;;
72325;SDS011;60278;47.980;18.780;2024-01-06T03:55:11;19.60;;;10.37;;
72325;SDS011;60278;47.980;18.780;2024-01-06T03:58:14;16.90;;;9.70;;
72325;SDS011;60278;47.980;18.780;2024-01-06T04:01:16;17.92;;;11.05;;
72325;SDS011;60278;47.980;18.780;2024-01-06T04:04:18;22.92;;;11.85;;
72325;SDS011;60278;47.980;18.780;2024-01-06T04:07:20;19.92;;;10.98;;
72325;SDS011;60278;47.980;18.780;2024-01-06T04:10:22;21.70;;;10.70;;
72325;SDS011;60278;47.980;18.780;2024-01-06T04:13:24;19.57;;;10.87;;
72325;SDS011;60278;47.980;18.780;2024-01-06T04:16:27;20.80;;;10.75;;
72325;SDS011;60278;47.980;18.780;2024-01-06T04:19:29;19.33;;;10.30;;
72325;SDS011;60278;47.980;18.780;2024-01-06T04:22:32;21.20;;;9.95;;
72325;SDS011;60278;47.980;18.780;2024-01-06T04:25:34;17.37;;;10.20;;
72325;SDS011;60278;47.980;18.780;2024-01-06T04:28:36;22.13;;;11.00;;
72325;SDS011;60278;47.980;18.780;2024-01-06T04:31:38;21.83;;;11.73;;
72325;SDS011;60278;47.980;18.780;2024-01-06T04:34:40;32.60;;;15.95;;
72325;SDS011;60278;47.980;18.780;2024-01-06T04:37:44;41.80;;;18.58;;
72325;SDS011;60278;47.980;18.780;2024-01-06T04:40:46;36.10;;;18.17;;
72325;SDS011;60278;47.980;18.780;2024-01-06T04:43:48;24.50;;;13.77;;
72325;SDS011;60278;47.980;18.780;2024-01-06T04:46:50;24.02;;;12.80;;
72325;SDS011;60278;47.980;18.780;2024-01-06T04:49:52;34.95;;;15.77;;
72325;SDS011;60278;47.980;18.780;2024-01-06T04:52:55;30.80;;;15.70;;
72325;SDS011;60278;47.980;18.780;2024-01-06T04:55:57;27.97;;;15.40;;
72325;SDS011;60278;47.980;18.780;2024-01-06T04:58:59;35.63;;;15.67;;
72325;SDS011;60278;47.980;18.780;2024-01-06T05:02:01;35.53;;;15.65;;
72325;SDS011;60278;47.980;18.780;2024-01-06T05:05:04;28.02;;;14.25;;
72325;SDS011;60278;47.980;18.780;2024-01-06T05:08:06;25.40;;;12.50;;
72325;SDS011;60278;47.980;18.780;2024-01-06T05:11:08;22.03;;;12.80;;
72325;SDS011;60278;47.980;18.780;2024-01-06T05:14:11;21.53;;;12.50;;
72325;SDS011;60278;47.980;18.780;2024-01-06T05:17:13;16.95;;;10.20;;
72325;SDS011;60278;47.980;18.780;2024-01-06T05:20:15;17.80;;;10.93;;
72325;SDS011;60278;47.980;18.780;2024-01-06T05:23:17;21.63;;;10.80;;
72325;SDS011;60278;47.980;18.780;2024-01-06T05:26:20;21.10;;;11.83;;
72325;SDS011;60278;47.980;18.780;2024-01-06T05:29:22;18.63;;;11.77;;
72325;SDS011;60278;47.980;18.780;2024-01-06T05:32:24;22.10;;;12.32;;
72325;SDS011;60278;47.980;18.780;2024-01-06T05:35:26;20.05;;;11.70;;
72325;SDS011;60278;47.980;18.780;2024-01-06T05:38:28;19.17;;;11.93;;
72325;SDS011;60278;47.980;18.780;2024-01-06T05:41:36;21.23;;;12.80;;
72325;SDS011;60278;47.980;18.780;2024-01-06T05:44:38;23.07;;;13.13;;
72325;SDS011;60278;47.980;18.780;2024-01-06T05:47:40;20.10;;;12.18;;
72325;SDS011;60278;47.980;18.780;2024-01-06T05:50:44;28.10;;;13.52;;
72325;SDS011;60278;47.980;18.780;2024-01-06T05:53:46;34.72;;;18.48;;
72325;SDS011;60278;47.980;18.780;2024-01-06T05:56:48;32.73;;;15.87;;
72325;SDS011;60278;47.980;18.780;2024-01-06T05:59:50;25.57;;;13.10;;
72325;SDS011;60278;47.980;18.780;2024-01-06T06:02:52;20.88;;;12.38;;
72325;SDS011;60278;47.980;18.780;2024-01-06T06:05:54;23.55;;;12.65;;
72325;SDS011;60278;47.980;18.780;2024-01-06T06:08:57;22.55;;;12.43;;
72325;SDS011;60278;47.980;18.780;2024-01-06T06:11:59;23.53;;;13.03;;
72325;SDS011;60278;47.980;18.780;2024-01-06T06:15:01;24.73;;;13.83;;
72325;SDS011;60278;47.980;18.780;2024-01-06T06:18:05;24.65;;;12.90;;
72325;SDS011;60278;47.980;18.780;2024-01-06T06:21:08;24.40;;;14.57;;
72325;SDS011;60278;47.980;18.780;2024-01-06T06:24:11;30.45;;;16.80;;
72325;SDS011;60278;47.980;18.780;2024-01-06T06:27:13;32.37;;;16.50;;
72325;SDS011;60278;47.980;18.780;2024-01-06T06:30:15;38.90;;;19.07;;
72325;SDS011;60278;47.980;18.780;2024-01-06T06:33:18;39.47;;;20.60;;
72325;SDS011;60278;47.980;18.780;2024-01-06T06:36:20;28.75;;;16.27;;
72325;SDS011;60278;47.980;18.780;2024-01-06T06:39:22;27.38;;;16.40;;
72325;SDS011;60278;47.980;18.780;2024-01-06T06:42:24;43.17;;;24.43;;
72325;SDS011;60278;47.980;18.780;2024-01-06T06:45:28;30.97;;;17.93;;
72325;SDS011;60278;47.980;18.780;2024-01-06T06:48:30;31.02;;;17.75;;
72325;SDS011;60278;47.980;18.780;2024-01-06T06:51:32;29.23;;;15.75;;
72325;SDS011;60278;47.980;18.780;2024-01-06T06:54:34;28.42;;;16.23;;
72325;SDS011;60278;47.980;18.780;2024-01-06T06:57:36;32.47;;;18.27;;
72325;SDS011;60278;47.980;18.780;2024-01-06T07:00:38;29.67;;;16.57;;
72325;SDS011;60278;47.980;18.780;2024-01-06T07:03:41;46.65;;;21.58;;
72325;SDS011;60278;47.980;18.780;2024-01-06T07:06:43;37.65;;;18.67;;
72325;SDS011;60278;47.980;18.780;2024-01-06T07:09:45;33.97;;;19.20;;
72325;SDS011;60278;47.980;18.780;2024-01-06T07:12:47;31.80;;;19.50;;
72325;SDS011;60278;47.980;18.780;2024-01-06T07:15:49;33.37;;;20.17;;
72325;SDS011;60278;47.980;18.780;2024-01-06T07:18:53;37.92;;;21.20;;
72325;SDS011;60278;47.980;18.780;2024-01-06T07:21:55;40.45;;;21.85;;
72325;SDS011;60278;47.980;18.780;2024-01-06T07:24:57;36.75;;;20.30;;
72325;SDS011;60278;47.980;18.780;2024-01-06T07:27:59;35.67;;;22.20;;
72325;SDS011;60278;47.980;18.780;2024-01-06T07:31:02;30.40;;;19.07;;
72325;SDS011;60278;47.980;18.780;2024-01-06T07:34:04;33.95;;;17.20;;
72325;SDS011;60278;47.980;18.780;2024-01-06T07:37:08;34.70;;;18.38;;
72325;SDS011;60278;47.980;18.780;2024-01-06T07:40:10;32.67;;;19.52;;
72325;SDS011;60278;47.980;18.780;2024-01-06T07:43:12;31.70;;;17.90;;
72325;SDS011;60278;47.980;18.780;2024-01-06T07:46:14;26.77;;;15.93;;
72325;SDS011;60278;47.980;18.780;2024-01-06T07:49:20;23.90;;;14.98;;
72325;SDS011;60278;47.980;18.780;2024-01-06T07:52:23;25.73;;;16.30;;
72325;SDS011;60278;47.980;18.780;2024-01-06T07:55:25;28.85;;;17.02;;
72325;SDS011;60278;47.980;18.780;2024-01-06T07:58:30;43.90;;;20.53;;
72325;SDS011;60278;47.980;18.780;2024-01-06T08:01:32;46.63;;;22.33;;
72325;SDS011;60278;47.980;18.780;2024-01-06T08:04:34;63.53;;;29.05;;
72325;SDS011;60278;47.980;18.780;2024-01-06T08:07:37;73.55;;;29.80;;
72325;SDS011;60278;47.980;18.780;2024-01-06T08:10:39;42.13;;;21.77;;
72325;SDS011;60278;47.980;18.780;2024-01-06T08:13:41;34.47;;;19.03;;
72325;SDS011;60278;47.980;18.780;2024-01-06T08:16:43;38.60;;;20.77;;
72325;SDS011;60278;47.980;18.780;2024-01-06T08:19:46;37.08;;;20.30;;
72325;SDS011;60278;47.980;18.780;2024-01-06T08:22:49;45.00;;;22.13;;
72325;SDS011;60278;47.980;18.780;2024-01-06T08:25:51;31.77;;;17.75;;
72325;SDS011;60278;47.980;18.780;2024-01-06T08:28:53;27.47;;;15.47;;
72325;SDS011;60278;47.980;18.780;2024-01-06T08:31:55;21.47;;;13.43;;
72325;SDS011;60278;47.980;18.780;2024-01-06T08:34:58;22.05;;;12.93;;
72325;SDS011;60278;47.980;18.780;2024-01-06T08:38:00;21.42;;;12.27;;
72325;SDS011;60278;47.980;18.780;2024-01-06T08:41:02;25.83;;;14.20;;
72325;SDS011;60278;47.980;18.780;2024-01-06T08:44:04;23.27;;;13.87;;
72325;SDS011;60278;47.980;18.780;2024-01-06T08:47:06;24.17;;;14.87;;
72325;SDS011;60278;47.980;18.780;2024-01-06T08:50:08;27.05;;;14.68;;
72325;SDS011;60278;47.980;18.780;2024-01-06T08:53:11;23.77;;;14.63;;
72325;SDS011;60278;47.980;18.780;2024-01-06T08:56:13;26.63;;;14.88;;
72325;SDS011;60278;47.980;18.780;2024-01-06T08:59:15;25.33;;;14.83;;
72325;SDS011;60278;47.980;18.780;2024-01-06T09:02:17;29.60;;;16.50;;
72325;SDS011;60278;47.980;18.780;2024-01-06T09:05:19;28.30;;;15.73;;
72325;SDS011;60278;47.980;18.780;2024-01-06T09:08:21;30.67;;;16.27;;
72325;SDS011;60278;47.980;18.780;2024-01-06T09:11:24;29.90;;;16.58;;
72325;SDS011;60278;47.980;18.780;2024-01-06T09:14:26;35.00;;;16.80;;
72325;SDS011;60278;47.980;18.780;2024-01-06T09:17:28;29.87;;;16.83;;
72325;SDS011;60278;47.980;18.780;2024-01-06T09:20:30;29.58;;;17.10;;
72325;SDS011;60278;47.980;18.780;2024-01-06T09:23:32;31.00;;;17.08;;
72325;SDS011;60278;47.980;18.780;2024-01-06T09:26:34;28.27;;;17.65;;
72325;SDS011;60278;47.980;18.780;2024-01-06T09:29:37;34.73;;;16.53;;
72325;SDS011;60278;47.980;18.780;2024-01-06T09:32:39;28.43;;;16.67;;
72325;SDS011;60278;47.980;18.780;2024-01-06T09:35:41;29.00;;;17.20;;
72325;SDS011;60278;47.980;18.780;2024-01-06T09:38:44;31.23;;;18.48;;
72325;SDS011;60278;47.980;18.780;2024-01-06T09:41:46;29.10;;;17.67;;
72325;SDS011;60278;47.980;18.780;2024-01-06T09:44:48;33.50;;;16.80;;
72325;SDS011;60278;47.980;18.780;2024-01-06T09:47:51;29.97;;;16.70;;
72325;SDS011;60278;47.980;18.780;2024-01-06T09:50:53;31.70;;;18.25;;
72325;SDS011;60278;47.980;18.780;2024-01-06T09:53:59;30.00;;;16.88;;
72325;SDS011;60278;47.980;18.780;2024-01-06T09:57:02;29.23;;;16.00;;
72325;SDS011;60278;47.980;18.780;2024-01-06T10:00:05;39.70;;;20.40;;
72325;SDS011;60278;47.980;18.780;2024-01-06T10:03:13;40.13;;;23.90;;
72325;SDS011;60278;47.980;18.780;2024-01-06T10:06:15;41.22;;;22.48;;
72325;SDS011;60278;47.980;18.780;2024-01-06T10:09:17;37.83;;;21.45;;
72325;SDS011;60278;47.980;18.780;2024-01-06T10:12:22;38.40;;;21.95;;
72325;SDS011;60278;47.980;18.780;2024-01-06T10:15:25;34.90;;;19.57;;
72325;SDS011;60278;47.980;18.780;2024-01-06T10:18:27;62.97;;;29.47;;
72325;SDS011;60278;47.980;18.780;2024-01-06T10:21:31;35.78;;;22.33;;
72325;SDS011;60278;47.980;18.780;2024-01-06T10:24:36;44.20;;;26.92;;
72325;SDS011;60278;47.980;18.780;2024-01-06T10:27:39;39.35;;;24.38;;
72325;SDS011;60278;47.980;18.780;2024-01-06T10:30:41;41.87;;;23.20;;
72325;SDS011;60278;47.980;18.780;2024-01-06T10:33:43;64.20;;;38.37;;
72325;SDS011;60278;47.980;18.780;2024-01-06T10:36:46;70.38;;;35.85;;
72325;SDS011;60278;47.980;18.780;2024-01-06T10:40:11;80.30;;;35.70;;
72325;SDS011;60278;47.980;18.780;2024-01-06T10:43:12;84.13;;;42.17;;
72325;SDS011;60278;47.980;18.780;2024-01-06T10:46:14;36.43;;;20.03;;
72325;SDS011;60278;47.980;18.780;2024-01-06T10:49:18;48.07;;;32.53;;
72325;SDS011;60278;47.980;18.780;2024-01-06T10:52:23;45.85;;;26.02;;
72325;SDS011;60278;47.980;18.780;2024-01-06T10:55:25;35.85;;;22.60;;
72325;SDS011;60278;47.980;18.780;2024-01-06T10:58:28;36.25;;;21.15;;
72325;SDS011;60278;47.980;18.780;2024-01-06T11:01:31;36.17;;;22.80;;
72325;SDS011;60278;47.980;18.780;2024-01-06T11:04:33;37.47;;;21.23;;
72325;SDS011;60278;47.980;18.780;2024-01-06T11:07:35;34.65;;;20.38;;
72325;SDS011;60278;47.980;18.780;2024-01-06T11:10:38;36.78;;;21.10;;
72325;SDS011;60278;47.980;18.780;2024-01-06T11:13:41;38.08;;;21.27;;
72325;SDS011;60278;47.980;18.780;2024-01-06T11:16:43;33.40;;;20.47;;
72325;SDS011;60278;47.980;18.780;2024-01-06T11:19:45;33.40;;;21.43;;
72325;SDS011;60278;47.980;18.780;2024-01-06T11:22:48;31.08;;;18.85;;
72325;SDS011;60278;47.980;18.780;2024-01-06T11:25:50;54.60;;;31.27;;
72325;SDS011;60278;47.980;18.780;2024-01-06T11:28:54;38.95;;;25.08;;
72325;SDS011;60278;47.980;18.780;2024-01-06T11:35:23;31.23;;;19.57;;
72325;SDS011;60278;47.980;18.780;2024-01-06T11:38:28;35.17;;;21.13;;
72325;SDS011;60278;47.980;18.780;2024-01-06T11:41:48;35.63;;;21.25;;
72325;SDS011;60278;47.980;18.780;2024-01-06T11:44:53;34.15;;;21.58;;
72325;SDS011;60278;47.980;18.780;2024-01-06T11:48:06;58.53;;;34.10;;
72325;SDS011;60278;47.980;18.780;2024-01-06T11:51:09;59.80;;;34.97;;
72325;SDS011;60278;47.980;18.780;2024-01-06T11:54:11;37.55;;;24.00;;
72325;SDS011;60278;47.980;18.780;2024-01-06T11:57:14;43.00;;;23.25;;
72325;SDS011;60278;47.980;18.780;2024-01-06T12:00:16;44.35;;;22.67;;
72325;SDS011;60278;47.980;18.780;2024-01-06T12:03:19;45.33;;;25.47;;
72325;SDS011;60278;47.980;18.780;2024-01-06T12:06:22;58.23;;;32.40;;
72325;SDS011;60278;47.980;18.780;2024-01-06T12:09:24;42.10;;;22.48;;
72325;SDS011;60278;47.980;18.780;2024-01-06T12:12:28;28.92;;;16.83;;
72325;SDS011;60278;47.980;18.780;2024-01-06T12:15:31;40.25;;;22.83;;
72325;SDS011;60278;47.980;18.780;2024-01-06T12:18:34;43.73;;;24.33;;
72325;SDS011;60278;47.980;18.780;2024-01-06T12:21:36;35.00;;;20.23;;
72325;SDS011;60278;47.980;18.780;2024-01-06T12:24:40;33.10;;;20.02;;
72325;SDS011;60278;47.980;18.780;2024-01-06T12:27:43;29.85;;;18.48;;
72325;SDS011;60278;47.980;18.780;2024-01-06T12:30:45;27.40;;;17.42;;
72325;SDS011;60278;47.980;18.780;2024-01-06T12:33:47;30.40;;;17.83;;
72325;SDS011;60278;47.980;18.780;2024-01-06T12:36:51;29.00;;;17.10;;
72325;SDS011;60278;47.980;18.780;2024-01-06T12:39:54;29.20;;;18.75;;
72325;SDS011;60278;47.980;18.780;2024-01-06T12:42:58;25.80;;;15.57;;
72325;SDS011;60278;47.980;18.780;2024-01-06T12:46:01;23.63;;;13.90;;
72325;SDS011;60278;47.980;18.780;2024-01-06T12:49:03;28.50;;;17.33;;
72325;SDS011;60278;47.980;18.780;2024-01-06T12:52:05;26.73;;;15.90;;
72325;SDS011;60278;47.980;18.780;2024-01-06T12:55:08;28.42;;;17.52;;
72325;SDS011;60278;47.980;18.780;2024-01-06T12:58:10;30.17;;;18.73;;
72325;SDS011;60278;47.980;18.780;2024-01-06T13:01:13;25.85;;;17.15;;
72325;SDS011;60278;47.980;18.780;2024-01-06T13:04:15;32.03;;;19.50;;
72325;SDS011;60278;47.980;18.780;2024-01-06T13:07:17;33.67;;;19.70;;
72325;SDS011;60278;47.980;18.780;2024-01-06T13:10:19;40.55;;;20.52;;
72325;SDS011;60278;47.980;18.780;2024-01-06T13:13:22;31.25;;;18.85;;
72325;SDS011;60278;47.980;18.780;2024-01-06T13:16:24;34.95;;;20.08;;
72325;SDS011;60278;47.980;18.780;2024-01-06T13:19:26;34.40;;;20.00;;
72325;SDS011;60278;47.980;18.780;2024-01-06T13:22:29;33.00;;;18.47;;
72325;SDS011;60278;47.980;18.780;2024-01-06T13:25:32;34.00;;;20.55;;
72325;SDS011;60278;47.980;18.780;2024-01-06T13:28:34;33.53;;;18.65;;
72325;SDS011;60278;47.980;18.780;2024-01-06T13:31:36;40.63;;;22.00;;
72325;SDS011;60278;47.980;18.780;2024-01-06T13:34:39;34.83;;;20.40;;
72325;SDS011;60278;47.980;18.780;2024-01-06T13:37:41;38.90;;;20.10;;
72325;SDS011;60278;47.980;18.780;2024-01-06T13:40:45;33.40;;;20.05;;
72325;SDS011;60278;47.980;18.780;2024-01-06T13:43:47;32.80;;;19.65;;
72325;SDS011;60278;47.980;18.780;2024-01-06T13:46:49;35.60;;;20.95;;
72325;SDS011;60278;47.980;18.780;2024-01-06T13:49:53;38.40;;;22.40;;
72325;SDS011;60278;47.980;18.780;2024-01-06T13:52:57;43.50;;;23.17;;
72325;SDS011;60278;47.980;18.780;2024-01-06T13:55:59;56.85;;;29.30;;
72325;SDS011;60278;47.980;18.780;2024-01-06T13:59:01;54.50;;;28.15;;
72325;SDS011;60278;47.980;18.780;2024-01-06T14:02:04;63.13;;;35.22;;
72325;SDS011;60278;47.980;18.780;2024-01-06T14:05:07;74.50;;;39.50;;
72325;SDS011;60278;47.980;18.780;2024-01-06T14:08:10;72.10;;;37.73;;
72325;SDS011;60278;47.980;18.780;2024-01-06T14:11:12;77.85;;;39.15;;
72325;SDS011;60278;47.980;18.780;2024-01-06T14:14:14;74.60;;;38.95;;
72325;SDS011;60278;47.980;18.780;2024-01-06T14:17:16;71.55;;;40.88;;
72325;SDS011;60278;47.980;18.780;2024-01-06T14:20:18;64.50;;;35.63;;
72325;SDS011;60278;47.980;18.780;2024-01-06T14:23:21;84.30;;;36.07;;
72325;SDS011;60278;47.980;18.780;2024-01-06T14:26:23;66.30;;;36.20;;
72325;SDS011;60278;47.980;18.780;2024-01-06T14:29:25;46.95;;;26.40;;
72325;SDS011;60278;47.980;18.780;2024-01-06T14:32:28;33.67;;;21.52;;
72325;SDS011;60278;47.980;18.780;2024-01-06T14:35:31;42.00;;;25.63;;
72325;SDS011;60278;47.980;18.780;2024-01-06T14:38:33;62.93;;;36.67;;
72325;SDS011;60278;47.980;18.780;2024-01-06T14:41:35;57.80;;;35.28;;
72325;SDS011;60278;47.980;18.780;2024-01-06T14:44:37;59.85;;;33.70;;
72325;SDS011;60278;47.980;18.780;2024-01-06T14:47:40;46.15;;;23.73;;
72325;SDS011;60278;47.980;18.780;2024-01-06T14:50:42;50.37;;;25.07;;
72325;SDS011;60278;47.980;18.780;2024-01-06T14:53:44;76.13;;;34.03;;
72325;SDS011;60278;47.980;18.780;2024-01-06T14:56:47;71.10;;;36.70;;
72325;SDS011;60278;47.980;18.780;2024-01-06T14:59:49;85.43;;;45.30;;
72325;SDS011;60278;47.980;18.780;2024-01-06T15:02:51;78.75;;;41.55;;
72325;SDS011;60278;47.980;18.780;2024-01-06T15:05:53;88.07;;;48.03;;
72325;SDS011;60278;47.980;18.780;2024-01-06T15:08:56;94.43;;;49.23;;
72325;SDS011;60278;47.980;18.780;2024-01-06T15:11:58;80.80;;;42.78;;
72325;SDS011;60278;47.980;18.780;2024-01-06T15:15:00;71.55;;;39.65;;
72325;SDS011;60278;47.980;18.780;2024-01-06T15:18:02;59.83;;;34.83;;
72325;SDS011;60278;47.980;18.780;2024-01-06T15:21:04;43.63;;;27.03;;
72325;SDS011;60278;47.980;18.780;2024-01-06T15:24:07;34.40;;;22.27;;
72325;SDS011;60278;47.980;18.780;2024-01-06T15:27:09;31.40;;;19.73;;
72325;SDS011;60278;47.980;18.780;2024-01-06T15:30:11;22.77;;;15.25;;
72325;SDS011;60278;47.980;18.780;2024-01-06T15:33:13;22.48;;;11.35;;
72325;SDS011;60278;47.980;18.780;2024-01-06T15:36:19;22.47;;;13.57;;
72325;SDS011;60278;47.980;18.780;2024-01-06T15:39:21;20.17;;;13.93;;
72325;SDS011;60278;47.980;18.780;2024-01-06T15:42:23;18.17;;;12.98;;
72325;SDS011;60278;47.980;18.780;2024-01-06T15:45:26;16.95;;;11.95;;
72325;SDS011;60278;47.980;18.780;2024-01-06T15:48:28;23.85;;;15.93;;
72325;SDS011;60278;47.980;18.780;2024-01-06T15:51:30;34.27;;;19.63;;
72325;SDS011;60278;47.980;18.780;2024-01-06T15:54:33;37.53;;;19.67;;
72325;SDS011;60278;47.980;18.780;2024-01-06T15:57:35;36.22;;;20.13;;
72325;SDS011;60278;47.980;18.780;2024-01-06T16:00:39;26.65;;;16.05;;
72325;SDS011;60278;47.980;18.780;2024-01-06T16:03:41;26.83;;;16.23;;
72325;SDS011;60278;47.980;18.780;2024-01-06T16:06:44;25.83;;;17.50;;
72325;SDS011;60278;47.980;18.780;2024-01-06T16:09:48;42.10;;;24.00;;
72325;SDS011;60278;47.980;18.780;2024-01-06T16:12:50;35.83;;;19.08;;
72325;SDS011;60278;47.980;18.780;2024-01-06T16:15:55;38.83;;;21.85;;
72325;SDS011;60278;47.980;18.780;2024-01-06T16:18:57;38.67;;;20.27;;
72325;SDS011;60278;47.980;18.780;2024-01-06T16:22:00;37.53;;;19.77;;
72325;SDS011;60278;47.980;18.780;2024-01-06T16:25:17;23.70;;;15.30;;
72325;SDS011;60278;47.980;18.780;2024-01-06T16:28:20;27.55;;;17.48;;
72325;SDS011;60278;47.980;18.780;2024-01-06T16:31:23;44.50;;;27.58;;
72325;SDS011;60278;47.980;18.780;2024-01-06T16:34:27;63.33;;;33.38;;
72325;SDS011;60278;47.980;18.780;2024-01-06T16:37:29;84.17;;;42.77;;
72325;SDS011;60278;47.980;18.780;2024-01-06T16:40:31;58.57;;;34.93;;
72325;SDS011;60278;47.980;18.780;2024-01-06T16:43:33;46.28;;;28.40;;
72325;SDS011;60278;47.980;18.780;2024-01-06T16:46:40;32.75;;;23.02;;
72325;SDS011;60278;47.980;18.780;2024-01-06T16:49:42;45.53;;;27.23;;
72325;SDS011;60278;47.980;18.780;2024-01-06T16:52:44;100.30;;;52.07;;
72325;SDS011;60278;47.980;18.780;2024-01-06T16:55:46;141.27;;;59.70;;
72325;SDS011;60278;47.980;18.780;2024-01-06T16:58:49;86.85;;;41.70;;
72325;SDS011;60278;47.980;18.780;2024-01-06T17:01:51;53.83;;;27.15;;
72325;SDS011;60278;47.980;18.780;2024-01-06T17:04:53;71.40;;;33.25;;
72325;SDS011;60278;47.980;18.780;2024-01-06T17:07:55;74.00;;;35.07;;
72325;SDS011;60278;47.980;18.780;2024-01-06T17:10:58;73.40;;;35.23;;
72325;SDS011;60278;47.980;18.780;2024-01-06T17:14:00;68.53;;;32.25;;
72325;SDS011;60278;47.980;18.780;2024-01-06T17:17:02;70.45;;;31.27;;
72325;SDS011;60278;47.980;18.780;2024-01-06T17:20:05;52.10;;;24.70;;
72325;SDS011;60278;47.980;18.780;2024-01-06T17:23:07;35.90;;;19.73;;
72325;SDS011;60278;47.980;18.780;2024-01-06T17:26:09;25.43;;;14.77;;
72325;SDS011;60278;47.980;18.780;2024-01-06T17:29:11;37.45;;;19.58;;
72325;SDS011;60278;47.980;18.780;2024-01-06T17:32:13;41.28;;;22.45;;
72325;SDS011;60278;47.980;18.780;2024-01-06T17:35:17;41.35;;;20.58;;